Aviation Digital Data Service (ADDS)

Output produced by METARs form (1939 UTC 25 March 2017)
found at http://www.aviationweather.gov/adds/metars/
 
FKKD 251900Z 27005KT 9999 TS BKN016 FEW020CB 30/26 Q1009 NOSIG
TAF FKKD 251700Z 2518/2624 24009KT 9999 TS BKN016 FEW020CB 
     PROB40 
     TEMPO 2518/2521 4000 TSRA BKN009 SCT012CB 
     BECMG 2521/2523 NSW 
     PROB40 2605/2607 3000 BR
       
FKKR 251900Z 02006KT CAVOK 38/04 Q1007 NOSIG
FKKN 251700Z 34004KT CAVOK 33/13 Q1014
FKYS 251900Z 00000KT 8000 FEW010 FEW020CB 24/23 Q1015 RETS NOSIG
TAF AMD FKYS 251419Z 2515/2612 26007KT 8000 BKN016 
     PROB30 
     TEMPO 2516/2520 TS BKN016 FEW023CB 
     BECMG 2520/2522 BKN006 
     PROB30 
     TEMPO 2603/2606 3000 BR 
     BECMG 2607/2609 BKN016